Tisch Mills, Wisconsin
Current Conditions -  °F | °C
As of 4:56 AM on Friday 24 Oct 2014 (Local Time) from KMTW Reporting Station
Haze Haze  
Wind Chill: 47°   Ceiling: 900
Heat Index: 49°   Visibility: 6mi
Dew Point: 48°   Wind: 5mph
Humidity: 97%   Direction: 270°W
Pressure: 30.03"   Gusts: NA
Location:  44.33°N, 87.62°W
Report Text: KMTW 240956Z AUTO 27004KT 6SM BR BKN009 OVC014 09/09 A3003 RMK AO2 SLP196 T00940089
Loading
Personal Weather Stations






























Interactive Weather Map
Tropical Storm Tracking
New forecast layout! Learn more

10-Day Weather Forecast

Advertisements
Track Severe Weather on mobile